Time;durP1;ratioP1;P1;durP2;ratioP2;P2;SDS_P1;SDS_P2;PMS_P1;PMS_P2;Temp;Humidity;BMP_temperature;BMP_pressure;BME280_temperature;BME280_humidity;BME280_pressure;Samples;Min_cycle;Max_cycle;Signal;HPM_P1;HPM_P2
2022/01/18 00:00:08;;;;;;;1.70;1.47;;;;;;;3.20;65.74;95071.34;5017430;28;20218;-60
2022/01/18 00:02:33;;;;;;;1.30;1.20;;;;;;;3.14;66.24;95062.22;5014255;28;20273;-60
2022/01/18 00:04:59;;;;;;;1.40;1.30;;;;;;;3.17;65.97;95069.78;5018225;28;20231;-60
2022/01/18 00:07:24;;;;;;;1.50;1.40;;;;;;;3.06;66.29;95065.34;5013262;28;20223;-60
2022/01/18 00:09:49;;;;;;;2.70;1.80;;;;;;;3.13;66.45;95065.75;5017864;28;20342;-60
2022/01/18 00:15:17;;;;;;;2.13;1.90;;;;;;;3.04;66.57;95061.19;5011740;28;20218;-61
2022/01/18 00:17:52;;;;;;;1.97;1.87;;;;;;;3.03;66.40;95070.75;5013037;28;20363;-60
2022/01/18 00:20:23;;;;;;;2.20;1.70;;;;;;;3.02;65.85;95068.25;5015056;28;20234;-60
2022/01/18 00:22:50;;;;;;;3.17;2.10;;;;;;;3.08;65.27;95078.22;5014184;28;20246;-61
2022/01/18 00:25:17;;;;;;;2.53;2.33;;;;;;;3.07;65.11;95086.94;5012150;28;20261;-60
2022/01/18 00:27:43;;;;;;;3.00;2.70;;;;;;;3.04;64.59;95082.78;5012759;28;20324;-62
2022/01/18 00:30:45;;;;;;;2.77;2.57;;;;;;;3.03;64.53;95064.72;5012968;28;20244;-60
2022/01/18 00:33:15;;;;;;;2.50;2.03;;;;;;;3.09;63.92;95067.72;5014745;28;20231;-60
2022/01/18 00:35:43;;;;;;;2.67;2.47;;;;;;;3.16;63.26;95064.72;5014159;28;20211;-63
2022/01/18 00:38:30;;;;;;;3.17;2.40;;;;;;;3.15;63.26;95057.84;5013653;28;20241;-64
2022/01/18 00:40:58;;;;;;;2.73;2.53;;;;;;;3.18;62.62;95074.06;5014117;28;20298;-60
2022/01/18 00:43:24;;;;;;;3.00;2.70;;;;;;;3.07;62.45;95030.66;5019863;28;20233;-60
2022/01/18 00:45:49;;;;;;;4.33;2.57;;;;;;;3.08;61.89;95041.88;5020386;28;20254;-60
2022/01/18 00:48:15;;;;;;;3.23;2.90;;;;;;;2.98;62.11;95052.03;5015019;28;20198;-63
2022/01/18 00:50:41;;;;;;;3.07;2.73;;;;;;;2.89;61.86;95068.25;5022650;28;20222;-61
2022/01/18 00:53:11;;;;;;;3.67;2.80;;;;;;;2.94;61.28;95067.94;5013686;28;20260;-61
2022/01/18 00:55:47;;;;;;;2.73;2.47;;;;;;;2.95;61.05;95077.41;5014747;28;20230;-62
2022/01/18 00:58:13;;;;;;;4.47;3.03;;;;;;;2.98;61.03;95101.41;5014522;28;20218;-65
2022/01/18 01:00:39;;;;;;;3.20;2.90;;;;;;;3.07;60.70;95099.94;5019020;28;20202;-61
2022/01/18 01:03:05;;;;;;;3.60;2.70;;;;;;;3.13;60.50;95111.66;5015740;28;20222;-61
2022/01/18 01:05:30;;;;;;;3.70;2.83;;;;;;;3.12;60.41;95117.81;5018946;28;20225;-62
2022/01/18 01:07:56;;;;;;;3.87;3.47;;;;;;;3.13;60.58;95127.25;5013497;28;20229;-64
2022/01/18 01:10:22;;;;;;;3.30;2.70;;;;;;;3.14;61.00;95128.94;5012696;28;20223;-62
2022/01/18 01:12:48;;;;;;;3.27;2.97;;;;;;;3.19;62.15;95132.06;5014646;28;20234;-62
2022/01/18 01:15:16;;;;;;;4.33;3.47;;;;;;;3.16;64.06;95168.66;5014689;28;20225;-61
2022/01/18 01:18:11;;;;;;;3.77;3.30;;;;;;;3.03;65.23;95172.06;5013495;28;20330;-63
2022/01/18 01:45:16;;;;;;;2.60;2.40;;;;;;;1.80;73.96;95199.00;5036672;28;20201;-61
2022/01/18 01:47:41;;;;;;;2.83;2.63;;;;;;;1.78;74.27;95204.28;5011448;28;20233;-63
2022/01/18 01:50:18;;;;;;;3.43;3.13;;;;;;;1.63;75.12;95219.03;5043095;28;20220;-61
2022/01/18 01:52:45;;;;;;;3.50;3.20;;;;;;;1.63;75.41;95215.56;5067134;28;20232;-63
2022/01/18 01:55:12;;;;;;;3.40;3.10;;;;;;;1.59;75.89;95207.16;5072503;28;20236;-62
2022/01/18 01:57:38;;;;;;;3.40;3.10;;;;;;;1.63;75.25;95218.16;5070375;28;20213;-63
2022/01/18 02:00:10;;;;;;;4.63;3.23;;;;;;;1.61;75.37;95240.78;5053311;28;20266;-61
2022/01/18 02:02:35;;;;;;;4.17;3.23;;;;;;;1.68;73.72;95250.66;5050946;28;20224;-62
2022/01/18 02:05:03;;;;;;;3.20;2.90;;;;;;;1.70;72.66;95259.19;5064812;28;20228;-61
2022/01/18 02:07:29;;;;;;;3.63;3.33;;;;;;;1.63;72.24;95257.91;5069171;28;20266;-61
2022/01/18 02:09:54;;;;;;;3.20;2.90;;;;;;;1.66;71.02;95242.16;5068892;28;20240;-60
2022/01/18 02:12:20;;;;;;;3.07;2.70;;;;;;;1.68;70.60;95253.25;5056536;28;20231;-61
2022/01/18 02:14:47;;;;;;;2.20;2.00;;;;;;;1.60;68.88;95245.09;5001375;28;20275;-61
2022/01/18 02:22:48;;;;;;;1.60;1.50;;;;;;;1.41;61.16;95275.63;4994989;28;20273;-61
2022/01/18 02:25:13;;;;;;;2.00;1.40;;;;;;;1.36;60.29;95278.47;5005005;28;20226;-61
2022/01/18 02:27:39;;;;;;;1.60;1.30;;;;;;;1.30;57.71;95277.09;5021506;28;20238;-63
2022/01/18 02:30:05;;;;;;;2.60;1.40;;;;;;;1.18;57.30;95280.41;5022364;28;20209;-63
2022/01/18 02:32:30;;;;;;;1.30;1.20;;;;;;;1.23;56.75;95301.69;5010795;28;20250;-60
2022/01/18 02:34:56;;;;;;;1.23;1.13;;;;;;;0.99;55.29;95296.16;5010413;28;20230;-65
2022/01/18 02:37:21;;;;;;;1.27;1.17;;;;;;;0.86;55.40;95297.78;5016690;28;20292;-61
2022/01/18 02:39:47;;;;;;;1.37;1.20;;;;;;;0.94;55.03;95310.28;5015217;28;20242;-61
2022/01/18 02:42:15;;;;;;;1.50;1.20;;;;;;;0.87;54.07;95310.63;5020471;28;20203;-62
2022/01/18 02:44:42;;;;;;;1.70;1.23;;;;;;;0.79;52.93;95317.97;5019918;28;20225;-63
2022/01/18 02:47:08;;;;;;;1.30;1.10;;;;;;;0.81;52.24;95326.50;5014416;28;20226;-61
2022/01/18 02:49:34;;;;;;;1.20;0.93;;;;;;;0.82;52.02;95327.31;5014836;28;20234;-65
2022/01/18 02:52:01;;;;;;;1.30;1.20;;;;;;;0.77;51.20;95332.75;5022939;28;20282;-61
2022/01/18 02:54:27;;;;;;;2.50;1.33;;;;;;;0.74;52.35;95342.44;5015850;28;20272;-65
2022/01/18 02:56:59;;;;;;;1.30;1.20;;;;;;;0.68;52.01;95322.91;5004147;28;20234;-62
2022/01/18 02:59:45;;;;;;;2.40;1.30;;;;;;;0.65;51.20;95348.97;5011799;28;20234;-63
2022/01/18 03:05:11;;;;;;;1.60;1.33;;;;;;;0.56;51.00;95341.69;5021331;28;20268;-62
2022/01/18 03:07:37;;;;;;;2.43;1.67;;;;;;;0.50;50.96;95363.56;5018661;28;20226;-62
2022/01/18 03:10:05;;;;;;;2.10;1.20;;;;;;;0.52;49.57;95369.50;5016760;28;20338;-61
2022/01/18 03:12:30;;;;;;;1.50;1.27;;;;;;;0.36;50.46;95360.88;5014141;28;20213;-60
2022/01/18 03:14:56;;;;;;;1.30;1.20;;;;;;;0.34;50.83;95383.41;5017306;28;20207;-61
2022/01/18 03:17:21;;;;;;;1.40;1.30;;;;;;;0.27;50.80;95382.91;5017689;28;20230;-61
2022/01/18 03:19:47;;;;;;;2.30;1.17;;;;;;;0.27;50.78;95367.38;5017845;28;20222;-62
2022/01/18 03:22:13;;;;;;;1.60;1.27;;;;;;;0.21;50.73;95372.88;5011888;28;20227;-60
2022/01/18 03:30:05;;;;;;;1.73;1.27;;;;;;;0.14;50.02;95412.91;5017539;28;20222;-61
2022/01/18 03:32:30;;;;;;;1.90;1.40;;;;;;;0.10;50.05;95416.56;5017515;28;20209;-61
2022/01/18 03:34:56;;;;;;;2.20;1.40;;;;;;;0.05;49.95;95408.19;5017232;28;20223;-61
2022/01/18 03:37:21;;;;;;;1.40;1.30;;;;;;;0.02;50.16;95434.22;5015324;28;20223;-61
2022/01/18 03:39:47;;;;;;;2.57;1.77;;;;;;;-0.02;49.96;95416.28;5002167;28;20286;-63
2022/01/18 03:45:02;;;;;;;2.53;1.70;;;;;;;-0.04;50.35;95449.13;5014479;28;20225;-61
2022/01/18 03:47:28;;;;;;;1.83;1.37;;;;;;;-0.06;50.22;95439.75;5015647;28;20246;-60
2022/01/18 03:49:53;;;;;;;1.67;1.30;;;;;;;-0.14;50.41;95437.56;5015152;28;20214;-61
2022/01/18 03:52:19;;;;;;;1.50;1.23;;;;;;;-0.08;50.16;95442.44;5014610;28;20235;-62
2022/01/18 03:54:47;;;;;;;1.40;1.30;;;;;;;-0.16;50.29;95452.31;5015975;28;20269;-61
2022/01/18 03:57:14;;;;;;;2.07;1.37;;;;;;;-0.11;49.97;95454.66;5015803;28;20531;-61
2022/01/18 03:59:40;;;;;;;1.70;1.40;;;;;;;-0.10;50.14;95477.88;5018038;28;20233;-61
2022/01/18 04:02:07;;;;;;;1.87;1.20;;;;;;;-0.18;50.22;95479.16;5017274;28;20219;-63
2022/01/18 04:04:37;;;;;;;3.33;1.50;;;;;;;-0.14;50.10;95478.09;5013457;28;20254;-61
2022/01/18 04:07:03;;;;;;;2.93;1.40;;;;;;;-0.20;50.19;95475.81;5016077;28;20226;-59
2022/01/18 04:09:29;;;;;;;2.10;1.70;;;;;;;-0.22;49.88;95486.22;5017249;28;20210;-61
2022/01/18 04:11:54;;;;;;;3.27;1.87;;;;;;;-0.26;50.64;95489.88;5013937;28;20204;-61
2022/01/18 04:14:20;;;;;;;4.10;1.83;;;;;;;-0.24;50.22;95498.38;5014681;28;20230;-62
2022/01/18 04:27:23;;;;;;;1.67;1.40;;;;;;;-0.31;49.58;95526.25;5017564;28;20260;-60
2022/01/18 04:29:48;;;;;;;2.83;1.83;;;;;;;-0.30;49.73;95547.75;5016971;28;20219;-62
2022/01/18 04:32:14;;;;;;;2.47;1.80;;;;;;;-0.22;49.68;95556.00;5015387;28;20226;-60
2022/01/18 04:34:40;;;;;;;1.97;1.40;;;;;;;-0.36;49.53;95535.16;5017773;28;20288;-60
2022/01/18 04:37:06;;;;;;;2.20;1.60;;;;;;;-0.32;49.61;95559.91;5017775;28;20226;-59
2022/01/18 04:39:38;;;;;;;3.40;1.57;;;;;;;-0.38;49.83;95550.72;5015912;28;20214;-61
2022/01/18 04:42:12;;;;;;;3.07;1.57;;;;;;;-0.37;50.05;95559.31;5015558;28;20210;-60
2022/01/18 04:49:48;;;;;;;2.90;1.70;;;;;;;-0.35;50.42;95596.25;5015075;28;20309;-60
2022/01/18 04:52:13;;;;;;;1.80;1.60;;;;;;;-0.41;49.57;95586.19;5018882;28;20234;-62
2022/01/18 04:54:44;;;;;;;2.40;1.87;;;;;;;-0.36;49.90;95603.16;5017299;28;20206;-62
2022/01/18 04:59:37;;;;;;;3.00;1.70;;;;;;;-0.38;49.34;95609.31;5016886;28;20215;-61
2022/01/18 05:02:03;;;;;;;2.23;1.67;;;;;;;-0.43;49.11;95617.25;5021148;28;20225;-61
2022/01/18 05:04:28;;;;;;;2.87;1.87;;;;;;;-0.40;49.20;95608.53;5016607;28;20289;-60
2022/01/18 05:06:58;;;;;;;2.97;2.00;;;;;;;-0.40;49.23;95618.88;5014087;28;20226;-62
2022/01/18 05:09:24;;;;;;;2.03;1.50;;;;;;;-0.42;49.69;95624.13;5024183;28;20202;-61
2022/01/18 05:12:11;;;;;;;2.13;1.70;;;;;;;-0.38;49.46;95617.06;5024603;28;20285;-62
2022/01/18 05:14:37;;;;;;;3.53;1.70;;;;;;;-0.38;49.61;95614.47;5016961;28;20234;-62
2022/01/18 05:17:20;;;;;;;2.27;2.07;;;;;;;-0.43;49.70;95614.69;5016782;28;20223;-62
2022/01/18 05:20:00;;;;;;;2.13;1.60;;;;;;;-0.42;49.73;95624.13;5006544;28;20257;-62
2022/01/18 05:25:09;;;;;;;2.07;1.63;;;;;;;-0.39;49.78;95646.41;5018015;28;20249;-62
2022/01/18 05:27:35;;;;;;;2.50;1.90;;;;;;;-0.33;50.01;95646.09;5016853;28;20199;-64
2022/01/18 05:30:01;;;;;;;2.53;1.73;;;;;;;-0.35;49.89;95653.91;5017409;28;20225;-61
2022/01/18 05:32:26;;;;;;;2.97;1.87;;;;;;;-0.39;49.88;95648.97;5019279;28;20234;-61
2022/01/18 05:34:52;;;;;;;3.50;2.07;;;;;;;-0.36;49.77;95654.84;5016465;28;20461;-61
2022/01/18 05:37:17;;;;;;;3.17;2.07;;;;;;;-0.38;49.72;95653.22;5017761;28;20288;-63
2022/01/18 05:39:43;;;;;;;4.70;2.00;;;;;;;-0.41;50.28;95658.53;5022061;28;20282;-62
2022/01/18 05:42:09;;;;;;;3.50;2.30;;;;;;;-0.51;50.70;95656.38;5019429;28;20210;-59
2022/01/18 05:44:34;;;;;;;2.30;1.90;;;;;;;-0.50;50.72;95659.81;5018946;28;20265;-63
2022/01/18 05:47:00;;;;;;;2.90;1.97;;;;;;;-0.43;50.45;95670.69;5018725;28;20219;-60
2022/01/18 05:49:25;;;;;;;3.57;2.10;;;;;;;-0.54;50.62;95671.16;5014694;28;20234;-63
2022/01/18 05:51:51;;;;;;;4.67;2.20;;;;;;;-0.49;51.04;95672.63;5016328;28;20250;-61
2022/01/18 05:54:16;;;;;;;2.83;1.93;;;;;;;-0.54;50.79;95663.41;5015973;28;20269;-61
2022/01/18 05:56:42;;;;;;;2.73;1.93;;;;;;;-0.53;51.06;95676.28;5032581;28;20214;-62
2022/01/18 05:59:09;;;;;;;2.20;1.73;;;;;;;-0.50;51.35;95691.63;5014804;28;20246;-62
2022/01/18 06:01:45;;;;;;;2.07;1.80;;;;;;;-0.46;50.77;95690.56;5016486;28;20261;-63
2022/01/18 06:06:54;;;;;;;3.23;2.10;;;;;;;-0.42;50.81;95690.47;5014621;28;20249;-64
2022/01/18 06:09:22;;;;;;;2.70;1.80;;;;;;;-0.52;51.10;95703.78;5014745;28;20210;-63
2022/01/18 06:11:47;;;;;;;2.50;1.87;;;;;;;-0.49;50.95;95701.06;5015307;28;20256;-63
2022/01/18 06:14:13;;;;;;;2.33;1.80;;;;;;;-0.56;51.09;95702.25;5016638;28;20227;-63
2022/01/18 06:16:39;;;;;;;2.33;1.70;;;;;;;-0.61;51.17;95714.53;5020256;28;20214;-63
2022/01/18 06:19:04;;;;;;;2.27;1.83;;;;;;;-0.45;50.97;95718.09;5015111;28;20250;-62
2022/01/18 06:21:30;;;;;;;2.07;1.70;;;;;;;-0.49;51.04;95713.97;5015269;28;20215;-62
2022/01/18 06:23:55;;;;;;;2.57;2.17;;;;;;;-0.47;50.99;95732.84;5014649;28;20218;-61
2022/01/18 06:26:21;;;;;;;2.97;2.00;;;;;;;-0.34;50.82;95727.97;5016098;28;20231;-62
2022/01/18 06:28:46;;;;;;;3.27;2.27;;;;;;;-0.45;51.40;95722.44;5011973;28;20294;-64
2022/01/18 06:31:15;;;;;;;3.37;2.30;;;;;;;-0.47;51.10;95717.34;5020818;28;20235;-61
2022/01/18 06:33:40;;;;;;;2.10;1.80;;;;;;;-0.41;50.70;95733.47;5013576;28;20207;-62
2022/01/18 06:36:06;;;;;;;3.40;2.17;;;;;;;-0.32;51.03;95735.63;5016485;28;20225;-62
2022/01/18 06:38:32;;;;;;;4.97;2.40;;;;;;;-0.36;50.88;95732.34;5011567;28;20218;-62
2022/01/18 06:40:58;;;;;;;2.80;2.30;;;;;;;-0.27;50.53;95721.63;5014825;28;20238;-62
2022/01/18 06:43:23;;;;;;;2.00;1.80;;;;;;;-0.25;50.51;95724.97;5013704;28;20215;-62
2022/01/18 06:45:49;;;;;;;2.47;1.77;;;;;;;-0.21;50.46;95723.09;4996652;28;20230;-62
2022/01/18 06:48:14;;;;;;;2.83;2.00;;;;;;;-0.16;50.69;95721.16;5014186;28;20214;-62
2022/01/18 06:50:40;;;;;;;2.40;2.10;;;;;;;-0.11;50.72;95713.16;5016724;28;20245;-66
2022/01/18 06:53:05;;;;;;;2.80;2.13;;;;;;;-0.12;50.52;95719.25;5015402;28;20518;-63
2022/01/18 06:55:31;;;;;;;2.37;2.00;;;;;;;-0.05;50.01;95726.66;5014385;28;20222;-62
2022/01/18 06:57:57;;;;;;;2.33;2.10;;;;;;;-0.07;50.03;95720.72;5016633;28;20214;-63
2022/01/18 07:00:23;;;;;;;2.83;1.83;;;;;;;-0.12;50.29;95755.44;5014041;28;20230;-62
2022/01/18 07:02:48;;;;;;;2.60;1.80;;;;;;;-0.19;50.51;95734.19;4993571;28;20219;-64
2022/01/18 07:05:14;;;;;;;4.87;2.33;;;;;;;-0.22;51.03;95739.50;4991390;28;20231;-62
2022/01/18 07:07:40;;;;;;;3.33;2.23;;;;;;;-0.15;50.99;95759.00;5004148;28;20242;-61
2022/01/18 07:10:07;;;;;;;2.13;1.93;;;;;;;-0.10;50.48;95759.63;5013924;28;20235;-62
2022/01/18 07:12:34;;;;;;;2.23;1.77;;;;;;;-0.20;50.65;95775.63;5016642;28;20211;-63
2022/01/18 07:15:02;;;;;;;3.33;2.20;;;;;;;-0.07;50.66;95769.81;5016223;28;20207;-61
2022/01/18 07:17:28;;;;;;;2.60;1.90;;;;;;;0.02;50.57;95775.50;5016157;28;20237;-60
2022/01/18 07:19:53;;;;;;;2.53;1.90;;;;;;;0.03;50.37;95777.16;5020162;28;20235;-62
2022/01/18 07:22:19;;;;;;;2.10;1.80;;;;;;;0.05;50.06;95778.78;5017768;28;20250;-63
2022/01/18 07:24:46;;;;;;;2.47;2.07;;;;;;;0.13;50.13;95806.88;5019163;28;20284;-62
2022/01/18 07:27:14;;;;;;;2.97;1.90;;;;;;;0.23;49.79;95784.84;5014433;28;20214;-61
2022/01/18 07:29:41;;;;;;;2.67;2.00;;;;;;;0.27;49.60;95790.72;5011436;28;20223;-63
2022/01/18 07:32:07;;;;;;;1.90;1.80;;;;;;;0.33;49.92;95783.53;5016977;28;20237;-60
2022/01/18 07:34:35;;;;;;;2.37;1.90;;;;;;;0.23;49.49;95815.91;5014524;28;20223;-63
2022/01/18 07:37:02;;;;;;;3.17;2.10;;;;;;;0.24;50.05;95801.22;5017989;28;20222;-64
2022/01/18 07:39:28;;;;;;;2.67;1.93;;;;;;;0.33;49.45;95786.13;5017555;28;20218;-63
2022/01/18 07:41:54;;;;;;;3.30;2.27;;;;;;;0.31;49.78;95802.63;5012909;28;20237;-62
2022/01/18 07:44:19;;;;;;;2.03;1.83;;;;;;;0.12;49.61;95807.78;5033834;28;20234;-66
2022/01/18 07:46:45;;;;;;;4.00;2.40;;;;;;;0.28;50.21;95813.94;5014612;28;20227;-65
2022/01/18 07:49:10;;;;;;;2.63;2.17;;;;;;;0.36;49.62;95791.16;5012822;28;20223;-65
2022/01/18 07:51:36;;;;;;;2.27;1.93;;;;;;;0.47;49.11;95800.16;4996042;28;20200;-63
2022/01/18 07:54:02;;;;;;;2.00;1.80;;;;;;;0.54;48.93;95806.75;5017194;28;20306;-64
2022/01/18 07:56:27;;;;;;;2.27;2.07;;;;;;;0.57;49.04;95806.59;5015778;28;20269;-64
2022/01/18 07:58:52;;;;;;;2.70;2.00;;;;;;;0.51;49.38;95810.31;5014538;28;20230;-61
2022/01/18 08:01:21;;;;;;;3.23;2.30;;;;;;;0.70;49.18;95806.84;5013545;28;20238;-62
2022/01/18 08:03:47;;;;;;;3.30;2.47;;;;;;;0.75;49.62;95828.16;5013506;28;20243;-61
2022/01/18 08:06:12;;;;;;;2.47;1.90;;;;;;;0.78;49.12;95823.69;5004795;28;20222;-62
2022/01/18 08:08:39;;;;;;;2.80;2.20;;;;;;;0.76;49.22;95820.34;5005672;28;20234;-62
2022/01/18 08:11:06;;;;;;;2.50;2.03;;;;;;;0.76;48.89;95824.69;5011993;28;20214;-63
2022/01/18 08:13:39;;;;;;;2.40;1.80;;;;;;;0.75;48.90;95813.50;5016649;28;20282;-62
2022/01/18 08:18:59;;;;;;;1.93;1.63;;;;;;;0.98;48.42;95830.50;5025079;28;20257;-64
2022/01/18 08:21:25;;;;;;;3.80;2.30;;;;;;;0.94;48.42;95835.94;5012919;28;20236;-66
2022/01/18 08:23:51;;;;;;;2.20;1.83;;;;;;;1.00;48.52;95848.56;5009088;28;20250;-63
2022/01/18 08:26:20;;;;;;;2.43;2.20;;;;;;;0.85;48.65;95844.94;5007395;28;20222;-63
2022/01/18 08:28:46;;;;;;;2.80;2.20;;;;;;;0.91;48.44;95874.88;5010801;28;20218;-62
2022/01/18 08:31:12;;;;;;;2.10;1.83;;;;;;;0.88;48.11;95844.78;5007954;28;20340;-63
2022/01/18 08:33:38;;;;;;;2.30;1.90;;;;;;;0.81;48.28;95846.00;5007009;28;20198;-63
2022/01/18 08:36:06;;;;;;;3.77;2.23;;;;;;;1.01;48.06;95861.44;5011250;28;20217;-63
2022/01/18 08:38:33;;;;;;;4.70;2.23;;;;;;;1.10;47.28;95870.53;5012489;28;20218;-62
2022/01/18 08:41:00;;;;;;;4.30;1.97;;;;;;;1.17;47.29;95866.72;5025853;28;20230;-64
2022/01/18 08:43:30;;;;;;;2.93;2.30;;;;;;;1.15;47.46;95868.56;5012937;28;20221;-65
2022/01/18 08:45:59;;;;;;;3.50;2.43;;;;;;;1.17;47.09;95866.72;5009416;28;20230;-62
2022/01/18 08:48:25;;;;;;;2.77;1.97;;;;;;;1.15;46.59;95899.66;5024580;28;20237;-64
2022/01/18 08:50:51;;;;;;;2.17;1.90;;;;;;;1.09;47.00;95864.47;5010480;28;20233;-63
2022/01/18 08:53:17;;;;;;;4.43;2.87;;;;;;;1.47;46.04;95876.50;5011594;28;20221;-64
2022/01/18 08:55:42;;;;;;;2.73;2.30;;;;;;;1.65;46.00;95860.03;5010102;28;20241;-63
2022/01/18 08:58:09;;;;;;;3.87;2.00;;;;;;;1.75;45.79;95876.81;5020215;28;20219;-63
2022/01/18 09:00:35;;;;;;;5.53;2.60;;;;;;;1.87;45.62;95879.69;5014219;28;20218;-63
2022/01/18 09:03:02;;;;;;;3.37;2.30;;;;;;;1.76;45.23;95877.63;5013167;28;20223;-64
2022/01/18 09:05:27;;;;;;;4.57;2.57;;;;;;;1.76;45.62;95885.41;5017091;28;20214;-66
2022/01/18 09:07:53;;;;;;;2.87;2.10;;;;;;;1.58;45.62;95876.84;5011126;28;20281;-63
2022/01/18 09:10:25;;;;;;;3.77;2.40;;;;;;;1.54;45.64;95893.44;5013748;28;20222;-63
2022/01/18 09:12:51;;;;;;;3.47;1.63;;;;;;;1.45;45.82;95879.19;5013546;28;20237;-61
2022/01/18 09:15:16;;;;;;;4.03;1.90;;;;;;;1.38;45.76;95877.78;5008787;28;20218;-65
2022/01/18 09:17:42;;;;;;;2.60;1.90;;;;;;;1.53;45.79;95869.28;5015342;28;20345;-66
2022/01/18 09:20:11;;;;;;;3.20;2.00;;;;;;;1.59;45.36;95878.50;5016714;28;20226;-67
2022/01/18 09:22:38;;;;;;;4.13;2.03;;;;;;;1.45;45.68;95870.56;5018140;28;20368;-63
2022/01/18 09:25:18;;;;;;;5.37;1.90;;;;;;;1.72;45.59;95874.38;5014855;28;20226;-64
2022/01/18 09:27:44;;;;;;;3.80;2.30;;;;;;;1.77;45.75;95877.56;5012774;28;20221;-64
2022/01/18 09:30:10;;;;;;;5.07;2.50;;;;;;;1.77;45.60;95862.03;5019446;28;20199;-65
2022/01/18 09:32:36;;;;;;;2.60;2.30;;;;;;;1.72;45.69;95874.38;5009688;28;20291;-66
2022/01/18 09:35:02;;;;;;;4.17;2.43;;;;;;;1.70;46.76;95855.47;5014829;28;20229;-61
2022/01/18 09:37:28;;;;;;;5.77;2.67;;;;;;;1.51;46.43;95875.44;5010586;28;20286;-62
2022/01/18 09:39:53;;;;;;;4.07;2.50;;;;;;;1.53;46.43;95853.72;4993869;28;20239;-63
2022/01/18 09:42:21;;;;;;;3.73;2.10;;;;;;;1.78;46.34;95865.44;5014701;28;20241;-62
2022/01/18 09:44:47;;;;;;;3.40;2.40;;;;;;;1.71;46.01;95840.72;5019488;28;20222;-61
2022/01/18 09:47:14;;;;;;;3.40;2.30;;;;;;;1.70;46.30;95842.50;5018190;28;20262;-62
2022/01/18 09:49:39;;;;;;;2.37;2.17;;;;;;;1.60;46.84;95838.69;5018491;28;20273;-63
2022/01/18 09:52:05;;;;;;;3.07;1.73;;;;;;;1.97;46.67;95842.00;5015294;28;20226;-61
2022/01/18 09:54:31;;;;;;;4.33;2.33;;;;;;;2.13;45.61;95832.50;5019648;28;20234;-61
2022/01/18 09:56:57;;;;;;;4.17;2.57;;;;;;;1.93;45.92;95837.91;5023400;28;20218;-62
2022/01/18 09:59:22;;;;;;;5.43;2.57;;;;;;;2.12;45.48;95851.59;5022042;28;20222;-63
2022/01/18 10:01:48;;;;;;;4.27;2.60;;;;;;;1.89;45.54;95850.16;5019450;28;20227;-63
2022/01/18 10:04:23;;;;;;;3.33;2.37;;;;;;;2.05;45.64;95852.81;5012937;28;20264;-66
2022/01/18 10:06:52;;;;;;;4.23;2.43;;;;;;;2.33;45.57;95851.38;5017341;28;20226;-66
2022/01/18 10:09:19;;;;;;;5.70;2.70;;;;;;;2.74;44.55;95874.28;5017834;28;20199;-67
2022/01/18 10:12:08;;;;;;;5.10;2.10;;;;;;;2.87;43.48;95878.72;5016181;28;20221;-63
2022/01/18 10:14:36;;;;;;;3.70;2.17;;;;;;;2.42;44.45;95862.09;5018109;28;20289;-65
2022/01/18 10:17:03;;;;;;;4.03;2.40;;;;;;;2.30;44.31;95861.91;5018459;28;20226;-64
2022/01/18 10:19:41;;;;;;;4.67;2.23;;;;;;;2.03;44.82;95867.63;5016884;28;20246;-63
2022/01/18 10:22:12;;;;;;;3.27;2.30;;;;;;;2.10;44.73;95847.41;5018148;28;20223;-65
2022/01/18 10:24:38;;;;;;;3.03;2.73;;;;;;;2.20;44.32;95865.00;5018709;28;20269;-63
2022/01/18 10:27:04;;;;;;;4.70;2.37;;;;;;;2.35;43.82;95863.38;5037043;28;20209;-70
2022/01/18 10:29:35;;;;;;;3.20;2.17;;;;;;;2.32;43.94;95852.28;5019423;28;20221;-63
2022/01/18 10:32:12;;;;;;;4.67;2.23;;;;;;;2.57;44.54;95859.63;5016652;28;20217;-66
2022/01/18 10:37:19;;;;;;;2.93;2.20;;;;;;;2.36;44.15;95853.81;5020205;28;20242;-65
2022/01/18 10:39:54;;;;;;;5.77;2.77;;;;;;;2.86;43.48;95845.91;5016009;28;20281;-65
2022/01/18 10:42:39;;;;;;;4.73;2.73;;;;;;;3.00;42.36;95847.72;5015954;28;20253;-67
2022/01/18 10:45:21;;;;;;;6.47;2.83;;;;;;;2.64;43.27;95841.00;5021562;28;20296;-64
2022/01/18 10:48:13;;;;;;;4.33;2.60;;;;;;;2.82;43.08;95841.78;5015112;28;20226;-64
2022/01/18 10:50:42;;;;;;;4.17;2.67;;;;;;;3.22;42.33;95856.91;5023000;28;20241;-65
2022/01/18 10:53:16;;;;;;;3.13;2.47;;;;;;;3.25;41.40;95847.16;5013740;28;20223;-64
2022/01/18 10:55:43;;;;;;;3.60;2.30;;;;;;;3.18;41.13;95847.59;5015649;28;20215;-63
2022/01/18 10:58:18;;;;;;;5.40;2.90;;;;;;;3.64;40.84;95850.19;5012662;28;20234;-63
2022/01/18 11:00:44;;;;;;;4.50;2.60;;;;;;;3.60;40.35;95843.47;5014254;28;20226;-64
2022/01/18 11:03:12;;;;;;;3.93;2.50;;;;;;;3.88;39.23;95833.13;5019108;28;20198;-66
2022/01/18 11:05:40;;;;;;;4.63;2.10;;;;;;;4.15;39.10;95840.22;5013958;28;20219;-67
2022/01/18 11:08:06;;;;;;;6.50;2.93;;;;;;;4.30;39.28;95843.66;5016647;28;20298;-67
2022/01/18 11:10:40;;;;;;;7.17;3.10;;;;;;;3.93;38.88;95838.09;5016047;28;20265;-65
2022/01/18 11:13:10;;;;;;;4.50;2.13;;;;;;;3.36;39.93;95833.56;5018348;28;20276;-66
2022/01/18 11:15:40;;;;;;;6.83;2.87;;;;;;;3.64;39.64;95840.63;5016629;28;20214;-65
2022/01/18 11:18:14;;;;;;;5.27;2.40;;;;;;;3.75;39.30;95827.81;5011272;28;20274;-67
2022/01/18 11:20:43;;;;;;;5.03;2.73;;;;;;;4.08;39.34;95825.91;5014286;28;20285;-67
2022/01/18 11:23:10;;;;;;;4.33;1.87;;;;;;;4.18;37.63;95834.84;5020249;28;20233;-63
2022/01/18 11:25:37;;;;;;;5.50;2.20;;;;;;;4.47;37.19;95834.84;5016126;28;20231;-62
2022/01/18 11:28:04;;;;;;;4.43;2.50;;;;;;;4.60;36.82;95859.19;5022858;28;20218;-64
2022/01/18 11:30:34;;;;;;;4.50;2.30;;;;;;;4.54;36.75;95842.16;5019212;28;20202;-61
2022/01/18 11:33:02;;;;;;;4.20;1.90;;;;;;;5.19;36.02;95849.38;5015632;28;20205;-62
2022/01/18 11:35:43;;;;;;;5.87;2.20;;;;;;;5.67;34.93;95859.31;5015723;28;20219;-62
2022/01/18 11:38:25;;;;;;;5.50;2.57;;;;;;;5.48;35.47;95857.06;5011781;28;20298;-62
2022/01/18 11:40:57;;;;;;;4.70;2.60;;;;;;;5.50;34.88;95842.16;5019114;28;20242;-63
2022/01/18 11:43:39;;;;;;;8.20;2.23;;;;;;;5.44;34.74;95832.13;5016212;28;20215;-62
2022/01/18 11:46:31;;;;;;;3.27;2.00;;;;;;;4.99;34.99;95836.75;5017661;28;20281;-61
2022/01/18 11:49:15;;;;;;;3.80;1.97;;;;;;;4.52;35.73;95832.78;5012929;28;20388;-62
2022/01/18 11:51:54;;;;;;;3.57;2.00;;;;;;;4.61;35.42;95853.88;5016098;28;20282;-62
2022/01/18 11:54:24;;;;;;;4.37;2.00;;;;;;;5.03;34.49;95805.19;5017756;28;20215;-61
2022/01/18 11:56:50;;;;;;;3.97;2.07;;;;;;;5.21;34.48;95837.09;5017878;28;20242;-62
2022/01/18 11:59:18;;;;;;;3.80;2.03;;;;;;;4.98;34.03;95828.13;5029970;28;20227;-64
2022/01/18 12:02:02;;;;;;;2.87;2.00;;;;;;;5.25;34.33;95841.16;5015864;28;20241;-63
2022/01/18 12:04:40;;;;;;;3.87;1.90;;;;;;;5.53;33.18;95852.38;5012471;28;20249;-63
2022/01/18 12:07:11;;;;;;;4.23;2.60;;;;;;;5.17;34.09;95829.53;5010085;28;20229;-64
2022/01/18 12:09:43;;;;;;;4.47;2.20;;;;;;;5.75;33.55;95826.56;5024579;28;20286;-63
2022/01/18 12:12:39;;;;;;;4.30;2.13;;;;;;;6.33;32.54;95826.16;5027785;28;20207;-65
2022/01/18 12:15:28;;;;;;;5.47;2.00;;;;;;;5.10;33.89;95823.88;5015877;28;20214;-62
2022/01/18 12:18:02;;;;;;;3.97;2.27;;;;;;;4.94;34.15;95824.00;5016087;28;20233;-62
2022/01/18 12:20:43;;;;;;;4.03;2.30;;;;;;;4.65;35.02;95820.63;5019994;28;20235;-64
2022/01/18 12:23:17;;;;;;;5.17;2.80;;;;;;;5.65;33.42;95809.84;5016836;28;20247;-63
2022/01/18 12:25:55;;;;;;;3.23;2.27;;;;;;;5.46;33.61;95814.63;5017406;28;20239;-63
2022/01/18 12:28:56;;;;;;;5.73;2.43;;;;;;;5.39;34.08;95821.16;5019243;28;20230;-63
2022/01/18 12:31:54;;;;;;;6.67;2.70;;;;;;;5.80;32.16;95821.03;5018421;28;20233;-63
2022/01/18 12:34:25;;;;;;;3.70;2.00;;;;;;;5.70;31.87;95807.75;5016058;28;20242;-63
2022/01/18 12:37:05;;;;;;;2.77;2.07;;;;;;;5.71;32.03;95788.53;5012842;28;20246;-64
2022/01/18 12:39:54;;;;;;;4.37;2.40;;;;;;;5.96;31.94;95795.59;5014186;28;20211;-64
2022/01/18 12:44:58;;;;;;;4.53;2.43;;;;;;;5.84;32.42;95783.34;5012708;28;20285;-62
2022/01/18 12:47:24;;;;;;;8.30;2.57;;;;;;;6.01;32.25;95782.22;5011563;28;20225;-62
2022/01/18 12:49:54;;;;;;;5.47;2.30;;;;;;;5.93;31.97;95790.59;5016981;28;20330;-62
2022/01/18 12:52:21;;;;;;;4.07;2.07;;;;;;;5.69;32.60;95790.44;5017204;28;20281;-64
2022/01/18 12:54:48;;;;;;;5.63;2.60;;;;;;;6.22;31.88;95802.56;5014997;28;20231;-63
2022/01/18 12:57:23;;;;;;;4.83;2.43;;;;;;;6.37;31.54;95801.53;5012856;28;20199;-64
2022/01/18 13:00:07;;;;;;;4.97;2.60;;;;;;;6.22;32.26;95802.56;5012580;28;20230;-63
2022/01/18 13:02:33;;;;;;;4.20;2.23;;;;;;;6.42;32.03;95809.88;5018410;28;20229;-63